createdAt,value
2022-10-22T00:04:58.288Z,20.15
2022-10-22T00:10:20.234Z,24.17
2022-10-22T00:15:42.080Z,19.25
2022-10-22T00:21:04.968Z,19.20
2022-10-22T00:26:27.234Z,19.35
2022-10-22T00:31:49.195Z,18.80
2022-10-22T00:37:11.059Z,19.55
2022-10-22T00:42:33.027Z,19.80
2022-10-22T00:47:54.817Z,20.75
2022-10-22T00:53:20.092Z,19.88
2022-10-22T00:58:47.370Z,20.65
2022-10-22T01:04:09.526Z,20.73
2022-10-22T01:09:45.238Z,21.00
2022-10-22T01:15:39.480Z,21.37
2022-10-22T01:21:10.491Z,20.30
2022-10-22T01:27:31.879Z,19.80
2022-10-22T01:32:58.764Z,20.40
2022-10-22T01:38:23.692Z,19.58
2022-10-22T01:43:45.724Z,20.17
2022-10-22T01:49:27.588Z,19.65
2022-10-22T01:55:13.045Z,19.80
2022-10-22T02:00:40.504Z,20.15
2022-10-22T02:06:09.513Z,19.98
2022-10-22T02:11:31.529Z,20.30
2022-10-22T02:16:54.200Z,20.55
2022-10-22T02:22:16.552Z,21.17
2022-10-22T02:27:49.316Z,20.67
2022-10-22T02:33:28.031Z,20.75
2022-10-22T02:38:51.587Z,22.00
2022-10-22T02:44:13.767Z,21.00
2022-10-22T02:49:35.685Z,21.67
2022-10-22T02:54:57.543Z,21.02
2022-10-22T03:00:22.471Z,20.42
2022-10-22T03:05:44.345Z,21.42
2022-10-22T03:11:06.370Z,20.50
2022-10-22T03:16:28.269Z,21.73
2022-10-22T03:21:55.239Z,21.90
2022-10-22T03:27:20.347Z,19.88
2022-10-22T03:32:42.201Z,20.23
2022-10-22T03:38:04.258Z,20.73
2022-10-22T03:43:26.353Z,20.77
2022-10-22T03:48:48.223Z,19.95
2022-10-22T03:54:10.191Z,21.52
2022-10-22T03:59:43.929Z,20.65
2022-10-22T04:05:06.315Z,19.70
2022-10-22T04:10:28.216Z,20.75
2022-10-22T04:15:50.290Z,19.55
2022-10-22T04:21:14.634Z,19.73
2022-10-22T04:26:36.747Z,20.25
2022-10-22T04:31:58.663Z,19.35
2022-10-22T04:37:20.916Z,20.13
2022-10-22T04:42:42.762Z,18.52
2022-10-22T04:48:04.991Z,18.90
2022-10-22T04:53:27.074Z,18.10
2022-10-22T04:58:57.932Z,17.63
2022-10-22T05:04:19.905Z,20.15
2022-10-22T05:09:41.741Z,18.25
2022-10-22T05:15:03.743Z,17.80
2022-10-22T05:20:25.659Z,17.13
2022-10-22T05:25:47.548Z,17.67
2022-10-22T05:31:12.003Z,17.75
2022-10-22T05:36:34.139Z,17.85
2022-10-22T05:41:56.038Z,16.75
2022-10-22T05:47:17.850Z,17.40
2022-10-22T05:52:40.168Z,17.33
2022-10-22T05:58:02.602Z,16.83
2022-10-22T06:03:24.474Z,18.85
2022-10-22T06:08:51.536Z,18.33
2022-10-22T06:14:13.585Z,18.02
2022-10-22T06:19:36.270Z,16.90
2022-10-22T06:24:58.170Z,18.88
2022-10-22T06:30:20.132Z,18.83
2022-10-22T06:35:41.980Z,19.98
2022-10-22T06:41:11.756Z,19.50
2022-10-22T06:46:33.678Z,19.73
2022-10-22T06:51:55.749Z,19.33
2022-10-22T06:57:17.663Z,20.08
2022-10-22T07:02:39.780Z,18.52
2022-10-22T07:08:01.868Z,19.17
2022-10-22T07:13:23.952Z,18.27
2022-10-22T07:18:46.305Z,18.67
2022-10-22T07:24:08.923Z,18.08
2022-10-22T07:29:31.036Z,16.45
2022-10-22T07:34:52.934Z,16.90
2022-10-22T07:40:14.836Z,16.08
2022-10-22T07:45:36.726Z,15.70
2022-10-22T07:50:58.721Z,17.35
2022-10-22T07:56:20.662Z,16.48
2022-10-22T08:01:42.568Z,16.17
2022-10-22T08:07:05.276Z,16.02
2022-10-22T08:12:27.214Z,15.02
2022-10-22T08:17:49.062Z,15.70
2022-10-22T08:23:11.227Z,15.25
2022-10-22T08:28:33.118Z,16.90
2022-10-22T08:33:55.008Z,15.63
2022-10-22T08:39:17.146Z,14.93
2022-10-22T08:44:58.785Z,16.42
2022-10-22T08:50:31.176Z,15.20
2022-10-22T08:55:54.159Z,14.95
2022-10-22T09:01:31.550Z,14.48
2022-10-22T09:06:55.666Z,15.20
2022-10-22T09:12:20.285Z,15.30
2022-10-22T09:18:07.198Z,15.85
2022-10-22T09:29:13.862Z,15.02
2022-10-22T09:34:36.017Z,15.38
2022-10-22T09:40:05.276Z,16.17
2022-10-22T09:45:27.135Z,15.98
2022-10-22T09:50:57.220Z,16.40
2022-10-22T09:56:26.516Z,16.98
2022-10-22T10:02:37.132Z,17.45
2022-10-22T10:08:12.167Z,18.45
2022-10-22T10:13:47.417Z,17.75
2022-10-22T10:19:30.095Z,18.38
2022-10-22T10:25:04.668Z,19.23
2022-10-22T10:30:26.586Z,19.88
2022-10-22T10:36:17.425Z,18.05
2022-10-22T10:42:16.930Z,18.63
2022-10-22T10:47:44.561Z,19.25
2022-10-22T10:53:25.243Z,18.92
2022-10-22T10:59:24.650Z,18.50
2022-10-22T11:05:03.109Z,18.48
2022-10-22T11:10:30.442Z,19.10
2022-10-22T11:16:10.210Z,19.55
2022-10-22T11:21:41.763Z,20.13
2022-10-22T11:27:22.012Z,19.52
2022-10-22T11:32:48.869Z,20.08
2022-10-22T11:38:17.117Z,20.52
2022-10-22T11:43:57.095Z,20.92
2022-10-22T11:49:24.925Z,21.08
2022-10-22T11:54:46.711Z,21.63
2022-10-22T12:00:41.409Z,23.42
2022-10-22T12:06:05.989Z,22.08
2022-10-22T12:11:41.277Z,21.05
2022-10-22T12:17:10.551Z,21.50
2022-10-22T12:22:33.948Z,21.00
2022-10-22T12:27:58.185Z,21.73
2022-10-22T12:33:23.320Z,21.73
2022-10-22T12:38:48.055Z,21.20
2022-10-22T12:44:13.149Z,21.02
2022-10-22T12:49:49.034Z,21.27
2022-10-22T12:55:17.222Z,21.57
2022-10-22T13:00:39.226Z,23.17
2022-10-22T13:06:19.242Z,21.83
2022-10-22T13:11:49.753Z,21.40
2022-10-22T13:17:38.963Z,21.27
2022-10-22T13:23:02.086Z,21.13
2022-10-22T13:28:24.330Z,20.02
2022-10-22T13:33:51.337Z,20.33
2022-10-22T13:39:21.483Z,22.80
2022-10-22T13:44:43.643Z,24.17
2022-10-22T13:50:13.749Z,21.23
2022-10-22T13:55:35.559Z,22.42
2022-10-22T14:01:00.098Z,21.67
2022-10-22T14:06:22.771Z,22.33
2022-10-22T14:11:44.661Z,22.33
2022-10-22T14:17:12.260Z,22.40
2022-10-22T14:22:34.098Z,24.80
2022-10-22T14:27:55.927Z,25.67
2022-10-22T14:33:28.999Z,24.90
2022-10-22T14:38:53.319Z,24.35
2022-10-22T14:44:15.104Z,25.80
2022-10-22T14:49:36.936Z,26.50
2022-10-22T14:54:58.829Z,26.00
2022-10-22T15:00:21.526Z,27.73
2022-10-22T15:05:44.978Z,29.38
2022-10-22T15:11:10.465Z,27.98
2022-10-22T15:16:32.305Z,28.40
2022-10-22T15:21:54.145Z,29.45
2022-10-22T15:27:16.140Z,29.35
2022-10-22T15:32:38.106Z,32.70
2022-10-22T15:38:00.134Z,29.52
2022-10-22T15:43:21.943Z,30.35
2022-10-22T15:48:44.590Z,30.98
2022-10-22T15:54:10.122Z,30.38
2022-10-22T15:59:32.862Z,30.87
2022-10-22T16:04:54.839Z,30.60
2022-10-22T16:10:16.718Z,32.70
2022-10-22T16:15:38.537Z,35.83
2022-10-22T16:21:00.366Z,39.38
2022-10-22T16:26:22.188Z,39.80
2022-10-22T16:31:44.059Z,38.03
2022-10-22T16:37:05.889Z,35.13
2022-10-22T16:42:27.677Z,33.22
2022-10-22T16:47:49.490Z,30.42
2022-10-22T16:53:11.636Z,31.60
2022-10-22T16:58:33.457Z,32.03
2022-10-22T17:03:56.283Z,32.83
2022-10-22T17:09:18.221Z,30.95
2022-10-22T17:14:40.192Z,31.00
2022-10-22T17:20:02.103Z,28.98
2022-10-22T17:25:32.593Z,29.00
2022-10-22T17:31:06.958Z,29.80
2022-10-22T17:36:33.277Z,29.05
2022-10-22T17:41:57.595Z,74.45
2022-10-22T17:47:19.529Z,30.23
2022-10-22T17:52:41.586Z,28.98
2022-10-22T17:58:03.625Z,29.92
2022-10-22T18:03:25.486Z,28.98
2022-10-22T18:08:47.791Z,35.22
2022-10-22T18:14:09.829Z,31.95
2022-10-22T18:19:31.807Z,30.85
2022-10-22T18:24:53.617Z,29.83
2022-10-22T18:30:15.947Z,32.25
2022-10-22T18:35:37.950Z,30.83
2022-10-22T18:40:59.812Z,30.60
2022-10-22T18:46:22.309Z,30.67
2022-10-22T18:51:45.016Z,30.77
2022-10-22T18:57:06.943Z,29.20
2022-10-22T19:02:28.782Z,31.42
2022-10-22T19:07:50.771Z,29.92
2022-10-22T19:13:13.702Z,29.13
2022-10-22T19:18:36.870Z,28.65
2022-10-22T19:24:00.201Z,26.73
2022-10-22T19:29:22.186Z,27.50
2022-10-22T19:34:44.087Z,26.00
2022-10-22T19:40:07.589Z,25.92
2022-10-22T19:45:29.434Z,26.50
2022-10-22T19:50:57.786Z,25.70
2022-10-22T19:56:21.178Z,23.98
2022-10-22T20:01:43.248Z,22.40
2022-10-22T20:07:05.070Z,22.00
2022-10-22T20:12:27.026Z,20.75
2022-10-22T20:17:48.860Z,19.65
2022-10-22T20:23:10.901Z,26.83
2022-10-22T20:28:33.093Z,18.23
2022-10-22T20:33:59.837Z,17.10
2022-10-22T20:39:21.660Z,24.25
2022-10-22T20:44:43.555Z,18.73
2022-10-22T20:50:05.749Z,19.83
2022-10-22T20:55:27.675Z,17.83
2022-10-22T21:00:50.344Z,17.98
2022-10-22T21:06:12.672Z,18.95
2022-10-22T21:11:35.911Z,16.42
2022-10-22T21:16:58.238Z,16.23
2022-10-22T21:22:20.036Z,14.95
2022-10-22T21:27:41.838Z,15.07
2022-10-22T21:33:03.737Z,14.60
2022-10-22T21:38:25.623Z,12.52
2022-10-22T21:43:47.924Z,14.73
2022-10-22T21:49:09.730Z,15.05
2022-10-22T21:54:31.636Z,14.52
2022-10-22T21:59:53.455Z,14.85
2022-10-22T22:05:15.361Z,14.77
2022-10-22T22:10:37.230Z,15.32
2022-10-22T22:16:00.685Z,16.80
2022-10-22T22:21:22.507Z,16.45
2022-10-22T22:26:44.349Z,15.68
2022-10-22T22:32:06.615Z,17.33
2022-10-22T22:37:28.539Z,17.40
2022-10-22T22:42:50.382Z,16.02
2022-10-22T22:48:12.162Z,16.00
2022-10-22T22:53:35.154Z,17.45
2022-10-22T22:58:57.480Z,17.65
2022-10-22T23:04:21.299Z,16.55
2022-10-22T23:09:43.199Z,17.75
2022-10-22T23:15:05.489Z,17.40
2022-10-22T23:20:27.324Z,15.98
2022-10-22T23:25:49.199Z,16.80
2022-10-22T23:31:13.791Z,16.40
2022-10-22T23:36:37.451Z,15.80
2022-10-22T23:41:59.385Z,16.65
2022-10-22T23:47:21.199Z,15.85
2022-10-22T23:52:43.345Z,15.18
2022-10-22T23:58:05.581Z,14.35
